Time;durP1;ratioP1;P1;durP2;ratioP2;P2;SDS_P1;SDS_P2;PMS_P1;PMS_P2;Temp;Humidity;BMP_temperature;BMP_pressure;BME280_temperature;BME280_humidity;BME280_pressure;Samples;Min_cycle;Max_cycle;Signal;HPM_P1;HPM_P2
2021/10/03 00:02:06;;;;;;;5.43;3.83;;;;;;;;;;5015793;28;20049;-86
2021/10/03 00:04:37;;;;;;;7.20;3.63;;;;;;;;;;5019723;28;20068;-87
2021/10/03 00:07:05;;;;;;;6.40;3.83;;;;;;;;;;5036699;28;20080;-87
2021/10/03 00:09:32;;;;;;;7.75;3.63;;;;;;;;;;5020046;28;20100;-86
2021/10/03 00:11:59;;;;;;;6.22;3.30;;;;;;;;;;5043366;28;20413;-87
2021/10/03 00:14:27;;;;;;;4.95;3.10;;;;;;;;;;5038624;28;20053;-86
2021/10/03 00:16:54;;;;;;;7.25;3.25;;;;;;;;;;5032945;28;20049;-87
2021/10/03 00:19:23;;;;;;;7.32;3.60;;;;;;;;;;5020420;28;20037;-87
2021/10/03 00:21:52;;;;;;;6.10;3.85;;;;;;;;;;5017832;28;20049;-86
2021/10/03 00:24:19;;;;;;;5.50;3.30;;;;;;;;;;5038127;28;20049;-86
2021/10/03 00:26:46;;;;;;;6.32;3.72;;;;;;;;;;5019133;28;20091;-86
2021/10/03 00:29:14;;;;;;;5.57;3.42;;;;;;;;;;5019946;28;20057;-86
2021/10/03 00:31:42;;;;;;;7.25;3.33;;;;;;;;;;5022073;28;20041;-86
2021/10/03 00:34:08;;;;;;;7.45;3.67;;;;;;;;;;5036506;28;20544;-88
2021/10/03 00:36:35;;;;;;;7.97;4.03;;;;;;;;;;4997295;28;20105;-86
2021/10/03 00:39:04;;;;;;;7.22;3.80;;;;;;;;;;5038117;28;20052;-86
2021/10/03 00:41:30;;;;;;;6.55;3.63;;;;;;;;;;5005381;28;20132;-85
2021/10/03 00:43:58;;;;;;;5.35;3.35;;;;;;;;;;5014739;28;20053;-88
2021/10/03 00:46:26;;;;;;;6.00;3.35;;;;;;;;;;5035856;28;20045;-88
2021/10/03 00:48:52;;;;;;;5.75;3.50;;;;;;;;;;5034753;28;20405;-87
2021/10/03 00:51:21;;;;;;;6.40;3.78;;;;;;;;;;5008305;28;20054;-87
2021/10/03 00:53:48;;;;;;;7.03;3.90;;;;;;;;;;5015908;28;20133;-88
2021/10/03 00:56:17;;;;;;;6.60;3.30;;;;;;;;;;5025379;28;20045;-87
2021/10/03 00:58:44;;;;;;;6.22;3.50;;;;;;;;;;5041106;28;20045;-88
2021/10/03 01:01:12;;;;;;;4.82;2.80;;;;;;;;;;5035756;28;20033;-88
2021/10/03 01:03:39;;;;;;;6.28;3.35;;;;;;;;;;5017847;28;20060;-88
2021/10/03 01:06:07;;;;;;;7.03;3.47;;;;;;;;;;5002346;28;20127;-88
2021/10/03 01:08:34;;;;;;;5.95;3.67;;;;;;;;;;5016337;28;20042;-88
2021/10/03 01:11:02;;;;;;;5.32;3.20;;;;;;;;;;5017556;28;20137;-87
2021/10/03 01:13:30;;;;;;;5.55;2.88;;;;;;;;;;5012682;28;20091;-88
2021/10/03 01:15:57;;;;;;;5.55;3.30;;;;;;;;;;5018829;28;20524;-88
2021/10/03 01:18:26;;;;;;;6.07;3.22;;;;;;;;;;5017340;28;20048;-87
2021/10/03 01:20:54;;;;;;;6.68;3.70;;;;;;;;;;5017943;28;20050;-87
2021/10/03 01:23:22;;;;;;;6.75;3.67;;;;;;;;;;5032569;28;20050;-87
2021/10/03 01:25:51;;;;;;;5.65;3.33;;;;;;;;;;5036371;28;20052;-87
2021/10/03 01:28:20;;;;;;;5.25;3.30;;;;;;;;;;5037106;28;20053;-87
2021/10/03 01:30:49;;;;;;;5.45;3.15;;;;;;;;;;5017789;28;20132;-87
2021/10/03 01:33:17;;;;;;;4.50;3.00;;;;;;;;;;5002492;28;20144;-88
2021/10/03 01:35:44;;;;;;;5.75;3.78;;;;;;;;;;5016168;28;20104;-87
2021/10/03 01:38:14;;;;;;;7.75;4.13;;;;;;;;;;5016961;28;20095;-87
2021/10/03 01:40:43;;;;;;;5.68;3.17;;;;;;;;;;5012021;28;20046;-87
2021/10/03 01:43:10;;;;;;;5.60;3.40;;;;;;;;;;5032030;28;20737;-87
2021/10/03 01:45:36;;;;;;;6.18;3.53;;;;;;;;;;5014082;28;20049;-89
2021/10/03 01:48:10;;;;;;;5.28;3.55;;;;;;;;;;5036369;28;20056;-87
2021/10/03 01:50:40;;;;;;;6.40;3.25;;;;;;;;;;5016364;28;20061;-86
2021/10/03 01:53:07;;;;;;;5.25;3.25;;;;;;;;;;5014089;28;20069;-87
2021/10/03 01:55:34;;;;;;;6.38;3.30;;;;;;;;;;5037002;28;20048;-87
2021/10/03 01:58:02;;;;;;;7.63;3.80;;;;;;;;;;5020830;28;20045;-87
2021/10/03 02:00:29;;;;;;;7.28;3.47;;;;;;;;;;5017329;28;20746;-87
2021/10/03 02:02:58;;;;;;;6.03;3.58;;;;;;;;;;5016470;28;20121;-86
2021/10/03 02:05:25;;;;;;;6.35;3.75;;;;;;;;;;5032293;28;20053;-87
2021/10/03 02:07:52;;;;;;;7.10;3.45;;;;;;;;;;5019572;28;20053;-86
2021/10/03 02:10:19;;;;;;;6.75;3.63;;;;;;;;;;5016990;28;20076;-87
2021/10/03 02:12:46;;;;;;;5.35;3.20;;;;;;;;;;5017952;28;20082;-87
2021/10/03 02:15:14;;;;;;;5.50;3.28;;;;;;;;;;5016921;28;20469;-87
2021/10/03 02:17:41;;;;;;;5.80;3.28;;;;;;;;;;4996907;28;20530;-86
2021/10/03 02:20:09;;;;;;;6.68;3.72;;;;;;;;;;5033830;28;20045;-87
2021/10/03 02:22:36;;;;;;;5.03;3.00;;;;;;;;;;4986198;28;20548;-88
2021/10/03 02:25:03;;;;;;;5.03;3.65;;;;;;;;;;5029449;28;20682;-88
2021/10/03 02:27:30;;;;;;;6.03;3.15;;;;;;;;;;5015308;28;20050;-87
2021/10/03 02:29:57;;;;;;;6.15;3.30;;;;;;;;;;5011347;28;20123;-89
2021/10/03 02:32:25;;;;;;;7.50;3.67;;;;;;;;;;5013186;28;20056;-88
2021/10/03 02:34:52;;;;;;;6.70;3.30;;;;;;;;;;5039111;28;20052;-88
2021/10/03 02:37:18;;;;;;;9.90;4.38;;;;;;;;;;5020759;28;20042;-88
2021/10/03 02:39:46;;;;;;;4.90;3.28;;;;;;;;;;5023216;28;20041;-88
2021/10/03 02:42:12;;;;;;;5.13;3.20;;;;;;;;;;5039820;28;20051;-87
2021/10/03 02:44:39;;;;;;;6.85;3.22;;;;;;;;;;5017050;28;20046;-88
2021/10/03 02:47:11;;;;;;;4.85;2.97;;;;;;;;;;5032778;28;20049;-87
2021/10/03 02:49:40;;;;;;;6.40;3.28;;;;;;;;;;4999284;28;20045;-86
2021/10/03 02:52:07;;;;;;;5.63;3.17;;;;;;;;;;5035615;28;20057;-87
2021/10/03 02:54:34;;;;;;;5.22;2.67;;;;;;;;;;4982685;28;20132;-87
2021/10/03 02:57:01;;;;;;;7.18;3.03;;;;;;;;;;5014922;28;20169;-86
2021/10/03 02:59:27;;;;;;;4.45;2.92;;;;;;;;;;4999794;28;20506;-87
2021/10/03 03:01:54;;;;;;;5.18;2.85;;;;;;;;;;5039045;28;20699;-86
2021/10/03 03:04:21;;;;;;;6.35;2.85;;;;;;;;;;5003999;28;20399;-87
2021/10/03 03:06:49;;;;;;;7.13;3.38;;;;;;;;;;5020661;28;20457;-87
2021/10/03 03:09:16;;;;;;;6.50;3.38;;;;;;;;;;5019234;28;20076;-88
2021/10/03 03:11:43;;;;;;;10.13;3.20;;;;;;;;;;5019428;28;20430;-86
2021/10/03 03:14:10;;;;;;;7.82;3.00;;;;;;;;;;5041651;28;20060;-86
2021/10/03 03:16:42;;;;;;;5.65;2.58;;;;;;;;;;5019680;28;20068;-87
2021/10/03 03:19:10;;;;;;;6.47;3.00;;;;;;;;;;5020847;28;20048;-89
2021/10/03 03:21:37;;;;;;;8.75;3.15;;;;;;;;;;5020836;28;20042;-87
2021/10/03 03:24:06;;;;;;;4.63;3.13;;;;;;;;;;5024107;28;20052;-87
2021/10/03 03:26:33;;;;;;;5.60;3.45;;;;;;;;;;5034776;28;20054;-87
2021/10/03 03:28:59;;;;;;;6.47;3.00;;;;;;;;;;5035813;28;20099;-88
2021/10/03 03:31:26;;;;;;;5.60;3.40;;;;;;;;;;5022195;28;20045;-87
2021/10/03 03:33:53;;;;;;;4.47;2.75;;;;;;;;;;5040619;28;20052;-87
2021/10/03 03:36:20;;;;;;;5.07;2.85;;;;;;;;;;5037127;28;20050;-87
2021/10/03 03:38:47;;;;;;;8.32;2.88;;;;;;;;;;5037735;28;20045;-88
2021/10/03 03:41:16;;;;;;;5.20;2.70;;;;;;;;;;5033925;28;20041;-88
2021/10/03 03:43:44;;;;;;;6.00;3.22;;;;;;;;;;5012123;28;20453;-87
2021/10/03 03:46:11;;;;;;;6.50;3.20;;;;;;;;;;5020112;28;20044;-87
2021/10/03 03:48:38;;;;;;;4.35;2.47;;;;;;;;;;5016681;28;20045;-88
2021/10/03 03:51:05;;;;;;;6.50;2.95;;;;;;;;;;5000276;28;20049;-88
2021/10/03 03:53:34;;;;;;;4.22;2.72;;;;;;;;;;4999577;28;20128;-88
2021/10/03 03:56:00;;;;;;;6.57;3.08;;;;;;;;;;5002249;28;20057;-88
2021/10/03 03:58:29;;;;;;;4.43;2.47;;;;;;;;;;5011699;28;20128;-88
2021/10/03 04:00:56;;;;;;;5.07;2.90;;;;;;;;;;5017893;28;20048;-88
2021/10/03 04:03:23;;;;;;;5.80;3.00;;;;;;;;;;5015427;28;20060;-87
2021/10/03 04:05:50;;;;;;;6.78;3.05;;;;;;;;;;5013710;28;20081;-87
2021/10/03 04:08:19;;;;;;;5.00;2.97;;;;;;;;;;5018353;28;22617;-89
2021/10/03 04:10:46;;;;;;;5.95;3.10;;;;;;;;;;5022695;28;20053;-88
2021/10/03 04:13:13;;;;;;;4.22;2.50;;;;;;;;;;5022206;28;20041;-88
2021/10/03 04:15:42;;;;;;;9.63;2.67;;;;;;;;;;5000514;28;20145;-88
2021/10/03 04:18:09;;;;;;;5.28;2.40;;;;;;;;;;5019269;28;20049;-89
2021/10/03 04:20:36;;;;;;;7.43;3.75;;;;;;;;;;5016182;28;20530;-87
2021/10/03 04:23:02;;;;;;;4.72;2.67;;;;;;;;;;5033568;28;20064;-87
2021/10/03 04:25:29;;;;;;;5.38;2.95;;;;;;;;;;5036780;28;20038;-87
2021/10/03 04:27:56;;;;;;;4.88;2.78;;;;;;;;;;5038912;28;20046;-87
2021/10/03 04:30:22;;;;;;;16.15;11.35;;;;;;;;;;5031291;28;20045;-87
2021/10/03 04:32:50;;;;;;;11.23;7.38;;;;;;;;;;5011891;28;20045;-87
2021/10/03 04:35:17;;;;;;;9.15;5.95;;;;;;;;;;5031549;28;20072;-88
2021/10/03 04:37:44;;;;;;;8.98;5.85;;;;;;;;;;5011041;28;20128;-87
2021/10/03 04:40:12;;;;;;;7.22;5.15;;;;;;;;;;5038950;28;20053;-88
2021/10/03 04:42:39;;;;;;;6.57;5.03;;;;;;;;;;5002393;28;20523;-87
2021/10/03 04:45:07;;;;;;;7.55;4.55;;;;;;;;;;5035959;28;20042;-88
2021/10/03 04:47:34;;;;;;;6.10;4.07;;;;;;;;;;5019792;28;20120;-87
2021/10/03 04:50:02;;;;;;;7.40;4.53;;;;;;;;;;5012065;28;20065;-88
2021/10/03 04:52:29;;;;;;;7.28;4.47;;;;;;;;;;5027170;28;20049;-88
2021/10/03 04:54:56;;;;;;;7.45;3.30;;;;;;;;;;5036999;28;20542;-88
2021/10/03 04:57:23;;;;;;;9.65;5.30;;;;;;;;;;5011803;28;20056;-87
2021/10/03 04:59:50;;;;;;;5.85;3.70;;;;;;;;;;5018654;28;20125;-87
2021/10/03 05:02:18;;;;;;;5.50;3.70;;;;;;;;;;5014139;28;20067;-89
2021/10/03 05:04:44;;;;;;;7.43;3.50;;;;;;;;;;5030126;28;20045;-87
2021/10/03 05:07:12;;;;;;;5.55;3.20;;;;;;;;;;5017567;28;20568;-87
2021/10/03 05:09:39;;;;;;;7.07;3.13;;;;;;;;;;5009896;28;20099;-88
2021/10/03 05:12:07;;;;;;;5.28;3.00;;;;;;;;;;5018904;28;20047;-87
2021/10/03 05:14:33;;;;;;;5.45;3.38;;;;;;;;;;4992084;28;20077;-87
2021/10/03 05:17:01;;;;;;;10.23;3.10;;;;;;;;;;5015319;28;20050;-87
2021/10/03 05:19:28;;;;;;;4.85;3.40;;;;;;;;;;5019627;28;20501;-86
2021/10/03 05:21:55;;;;;;;4.72;2.92;;;;;;;;;;5038341;28;20045;-86
2021/10/03 05:24:23;;;;;;;4.53;2.78;;;;;;;;;;5044503;28;20760;-86
2021/10/03 05:26:50;;;;;;;3.72;2.40;;;;;;;;;;5034327;28;20049;-87
2021/10/03 05:29:17;;;;;;;4.80;2.78;;;;;;;;;;5034951;28;20070;-88
2021/10/03 05:31:44;;;;;;;4.30;2.72;;;;;;;;;;5037597;28;20056;-87
2021/10/03 05:34:11;;;;;;;4.20;2.30;;;;;;;;;;5035098;28;20045;-87
2021/10/03 05:36:38;;;;;;;7.47;3.10;;;;;;;;;;4998638;28;20049;-87
2021/10/03 05:39:04;;;;;;;6.07;3.20;;;;;;;;;;5005797;28;20544;-87
2021/10/03 05:41:32;;;;;;;6.97;2.65;;;;;;;;;;5018370;28;20650;-87
2021/10/03 05:43:59;;;;;;;6.10;3.30;;;;;;;;;;5034932;28;20057;-86
2021/10/03 05:46:26;;;;;;;7.30;4.43;;;;;;;;;;5013279;28;20414;-87
2021/10/03 05:48:53;;;;;;;5.30;3.40;;;;;;;;;;5021177;28;20403;-87
2021/10/03 05:51:19;;;;;;;4.63;2.97;;;;;;;;;;5038104;28;20045;-87
2021/10/03 05:53:47;;;;;;;6.28;3.45;;;;;;;;;;5020860;28;20049;-87
2021/10/03 05:56:13;;;;;;;6.78;2.88;;;;;;;;;;5015500;28;20044;-87
2021/10/03 05:58:42;;;;;;;6.03;2.58;;;;;;;;;;4984916;28;20457;-87
2021/10/03 06:01:08;;;;;;;5.07;2.90;;;;;;;;;;5012464;28;20445;-87
2021/10/03 06:03:35;;;;;;;8.30;2.95;;;;;;;;;;5015594;28;20445;-87
2021/10/03 06:06:02;;;;;;;5.78;2.92;;;;;;;;;;5010651;28;20045;-89
2021/10/03 06:08:29;;;;;;;3.67;2.20;;;;;;;;;;5018661;28;20053;-87
2021/10/03 06:10:55;;;;;;;4.13;2.33;;;;;;;;;;5021821;28;20050;-87
2021/10/03 06:13:23;;;;;;;4.15;2.35;;;;;;;;;;5038608;28;20076;-90
2021/10/03 06:15:54;;;;;;;3.63;2.25;;;;;;;;;;5007032;28;20053;-88
2021/10/03 06:18:21;;;;;;;6.82;2.90;;;;;;;;;;5030893;28;20042;-88
2021/10/03 06:20:48;;;;;;;5.10;2.88;;;;;;;;;;5024672;28;20045;-86
2021/10/03 06:23:16;;;;;;;6.10;2.65;;;;;;;;;;5021224;28;20037;-87
2021/10/03 06:25:42;;;;;;;5.70;3.03;;;;;;;;;;5002669;28;20095;-87
2021/10/03 06:28:10;;;;;;;5.25;2.92;;;;;;;;;;5017612;28;20120;-86
2021/10/03 06:30:37;;;;;;;6.57;2.88;;;;;;;;;;5035906;28;20052;-88
2021/10/03 06:33:05;;;;;;;7.20;2.88;;;;;;;;;;5016565;28;20084;-86
2021/10/03 06:35:32;;;;;;;6.05;2.70;;;;;;;;;;4998440;28;20053;-87
2021/10/03 06:37:59;;;;;;;5.75;2.70;;;;;;;;;;5033470;28;20045;-86
2021/10/03 06:40:27;;;;;;;8.23;3.03;;;;;;;;;;5031293;28;20048;-86
2021/10/03 06:42:54;;;;;;;7.32;2.65;;;;;;;;;;5035617;28;20049;-87
2021/10/03 06:45:21;;;;;;;5.43;2.65;;;;;;;;;;5017174;28;20475;-87
2021/10/03 06:47:48;;;;;;;7.38;3.25;;;;;;;;;;5038486;28;20072;-87
2021/10/03 06:50:17;;;;;;;10.25;3.65;;;;;;;;;;5034479;28;20049;-87
2021/10/03 06:52:44;;;;;;;5.15;2.80;;;;;;;;;;5000797;28;20137;-87
2021/10/03 06:55:11;;;;;;;7.30;3.60;;;;;;;;;;4996383;28;20096;-87
2021/10/03 06:57:37;;;;;;;5.13;2.75;;;;;;;;;;4996254;28;20080;-88
2021/10/03 07:00:06;;;;;;;6.13;3.53;;;;;;;;;;5012465;28;20050;-87
2021/10/03 07:02:33;;;;;;;5.63;3.10;;;;;;;;;;5032126;28;20478;-89
2021/10/03 07:05:00;;;;;;;5.68;3.00;;;;;;;;;;5029214;28;20103;-87
2021/10/03 07:07:29;;;;;;;4.63;2.70;;;;;;;;;;5009719;28;20095;-87
2021/10/03 07:09:56;;;;;;;5.95;3.30;;;;;;;;;;5000008;28;20121;-88
2021/10/03 07:12:23;;;;;;;5.97;3.25;;;;;;;;;;5010780;28;20115;-88
2021/10/03 07:14:50;;;;;;;6.20;3.60;;;;;;;;;;4996633;28;20077;-88
2021/10/03 07:17:17;;;;;;;6.18;3.80;;;;;;;;;;5032719;28;20050;-89
2021/10/03 07:19:44;;;;;;;5.50;3.33;;;;;;;;;;5001612;28;20049;-86
2021/10/03 07:22:12;;;;;;;5.18;3.13;;;;;;;;;;5003663;28;20705;-87
2021/10/03 07:24:40;;;;;;;6.30;3.28;;;;;;;;;;5034562;28;20045;-88
2021/10/03 07:27:07;;;;;;;7.10;3.53;;;;;;;;;;5036484;28;20053;-87
2021/10/03 07:29:37;;;;;;;7.03;3.80;;;;;;;;;;5034616;28;20056;-86
2021/10/03 07:32:06;;;;;;;4.93;3.28;;;;;;;;;;5036782;28;20125;-87
2021/10/03 07:34:33;;;;;;;10.57;3.90;;;;;;;;;;5032022;28;20041;-88
2021/10/03 07:37:00;;;;;;;6.68;3.67;;;;;;;;;;5036693;28;20049;-88
2021/10/03 07:39:27;;;;;;;6.97;3.53;;;;;;;;;;5001472;28;20049;-88
2021/10/03 07:41:56;;;;;;;5.03;3.15;;;;;;;;;;5000169;28;20132;-88
2021/10/03 07:44:24;;;;;;;6.40;3.30;;;;;;;;;;5028744;28;20052;-89
2021/10/03 07:46:51;;;;;;;6.53;3.33;;;;;;;;;;5031745;28;20046;-89
2021/10/03 07:49:18;;;;;;;5.28;2.95;;;;;;;;;;5038087;28;20053;-89
2021/10/03 07:51:45;;;;;;;5.05;3.15;;;;;;;;;;5035799;28;20493;-89
2021/10/03 07:54:11;;;;;;;4.50;2.90;;;;;;;;;;4997658;28;20049;-89
2021/10/03 07:56:38;;;;;;;7.35;3.20;;;;;;;;;;5034084;28;20041;-89
2021/10/03 07:59:06;;;;;;;4.57;3.00;;;;;;;;;;5021041;28;20045;-89
2021/10/03 08:01:33;;;;;;;4.15;2.95;;;;;;;;;;5015543;28;20041;-88
2021/10/03 08:04:00;;;;;;;4.10;2.35;;;;;;;;;;5015602;28;20097;-88
2021/10/03 08:06:41;;;;;;;3.85;2.70;;;;;;;;;;5020756;28;20049;-87
2021/10/03 08:09:08;;;;;;;4.22;2.65;;;;;;;;;;5012508;28;20041;-87
2021/10/03 08:11:35;;;;;;;4.72;2.85;;;;;;;;;;5013377;28;20045;-87
2021/10/03 08:14:02;;;;;;;3.75;2.40;;;;;;;;;;5012666;28;20502;-87
2021/10/03 08:16:31;;;;;;;4.82;2.40;;;;;;;;;;5015174;28;20510;-87
2021/10/03 08:18:59;;;;;;;3.63;2.10;;;;;;;;;;5015607;28;20049;-87
2021/10/03 08:21:26;;;;;;;4.85;2.30;;;;;;;;;;5017505;28;20479;-87
2021/10/03 08:23:53;;;;;;;3.55;2.00;;;;;;;;;;5036948;28;20053;-86
2021/10/03 08:26:20;;;;;;;4.03;2.00;;;;;;;;;;5019870;28;20486;-86
2021/10/03 08:28:47;;;;;;;4.25;1.90;;;;;;;;;;5003558;28;20088;-87
2021/10/03 08:31:13;;;;;;;3.63;1.90;;;;;;;;;;5014126;28;20045;-86
2021/10/03 08:33:42;;;;;;;4.30;1.80;;;;;;;;;;5035188;28;20046;-86
2021/10/03 08:36:09;;;;;;;4.10;2.08;;;;;;;;;;5018655;28;20123;-86
2021/10/03 08:38:35;;;;;;;5.00;1.98;;;;;;;;;;4988053;28;20125;-86
2021/10/03 08:41:03;;;;;;;3.42;1.80;;;;;;;;;;5015904;28;20057;-87
2021/10/03 08:43:29;;;;;;;3.13;1.90;;;;;;;;;;5032741;28;20045;-86
2021/10/03 08:45:59;;;;;;;2.70;1.80;;;;;;;;;;5031351;28;20104;-87
2021/10/03 08:48:27;;;;;;;3.03;1.77;;;;;;;;;;5036355;28;20402;-86
2021/10/03 08:50:55;;;;;;;3.45;1.92;;;;;;;;;;5039666;28;20049;-86
2021/10/03 08:53:22;;;;;;;3.30;1.75;;;;;;;;;;5002278;28;20382;-86
2021/10/03 08:55:50;;;;;;;2.22;1.50;;;;;;;;;;5020252;28;20046;-87
2021/10/03 08:58:16;;;;;;;2.90;1.80;;;;;;;;;;5004322;28;20044;-86
2021/10/03 09:00:47;;;;;;;3.55;1.83;;;;;;;;;;5013367;28;20072;-86
2021/10/03 09:03:14;;;;;;;11.77;2.40;;;;;;;;;;5003606;28;20056;-87
2021/10/03 09:05:44;;;;;;;8.55;2.42;;;;;;;;;;5037595;28;20462;-87
2021/10/03 09:08:14;;;;;;;4.13;1.80;;;;;;;;;;5035282;28;20485;-86
2021/10/03 09:10:50;;;;;;;3.20;1.70;;;;;;;;;;5040550;28;20107;-86
2021/10/03 09:13:18;;;;;;;3.00;1.85;;;;;;;;;;5039343;28;20446;-88
2021/10/03 09:15:47;;;;;;;3.92;1.80;;;;;;;;;;5031228;28;20076;-87
2021/10/03 09:18:20;;;;;;;2.78;1.70;;;;;;;;;;5032596;28;20581;-87
2021/10/03 09:20:47;;;;;;;3.42;2.03;;;;;;;;;;5001960;28;20387;-86
2021/10/03 09:23:17;;;;;;;2.70;1.70;;;;;;;;;;5024038;28;20144;-86
2021/10/03 09:25:47;;;;;;;2.10;1.40;;;;;;;;;;5031701;28;20057;-85
2021/10/03 09:28:17;;;;;;;2.83;2.00;;;;;;;;;;5014967;28;20049;-87
2021/10/03 09:31:04;;;;;;;3.72;1.77;;;;;;;;;;4998155;28;20506;-87
2021/10/03 09:33:51;;;;;;;3.58;1.55;;;;;;;;;;5027721;28;20203;-88
2021/10/03 09:36:20;;;;;;;3.67;2.00;;;;;;;;;;5021863;28;20052;-86
2021/10/03 09:39:07;;;;;;;3.10;1.90;;;;;;;;;;5018412;28;20129;-87
2021/10/03 09:41:38;;;;;;;3.05;1.70;;;;;;;;;;5013162;28;20042;-89
2021/10/03 09:44:10;;;;;;;2.00;1.60;;;;;;;;;;5035876;28;20052;-88
2021/10/03 09:46:44;;;;;;;2.25;1.52;;;;;;;;;;5016926;28;20037;-88
2021/10/03 09:49:16;;;;;;;2.63;1.63;;;;;;;;;;5036178;28;20044;-88
2021/10/03 09:51:55;;;;;;;3.42;1.70;;;;;;;;;;5032710;28;20049;-88
2021/10/03 09:54:29;;;;;;;3.67;1.85;;;;;;;;;;5029435;28;20132;-87
2021/10/03 09:57:04;;;;;;;2.58;1.63;;;;;;;;;;5000061;28;20053;-88
2021/10/03 09:59:34;;;;;;;2.92;1.70;;;;;;;;;;4997623;28;20045;-86
2021/10/03 10:02:03;;;;;;;2.67;1.90;;;;;;;;;;5015975;28;20722;-88
2021/10/03 10:04:32;;;;;;;3.17;1.98;;;;;;;;;;5032369;28;20044;-87
2021/10/03 10:07:01;;;;;;;3.22;2.03;;;;;;;;;;4997879;28;20486;-88
2021/10/03 10:09:31;;;;;;;3.05;1.60;;;;;;;;;;5034203;28;20053;-87
2021/10/03 10:12:02;;;;;;;2.40;1.60;;;;;;;;;;5038037;28;20123;-86
2021/10/03 10:14:31;;;;;;;2.40;1.40;;;;;;;;;;5035669;28;20076;-87
2021/10/03 10:17:01;;;;;;;3.55;1.83;;;;;;;;;;5032100;28;20529;-87
2021/10/03 10:19:36;;;;;;;3.13;1.65;;;;;;;;;;5020888;28;20066;-86
2021/10/03 10:22:37;;;;;;;2.78;1.33;;;;;;;;;;5020180;28;20098;-87
2021/10/03 10:25:08;;;;;;;3.72;1.70;;;;;;;;;;5031614;28;20045;-86
2021/10/03 10:28:00;;;;;;;4.03;2.20;;;;;;;;;;5013796;28;20077;-87
2021/10/03 10:30:28;;;;;;;3.55;1.70;;;;;;;;;;5030736;28;20069;-86
2021/10/03 10:33:16;;;;;;;3.30;1.42;;;;;;;;;;5034634;28;20486;-86
2021/10/03 10:35:44;;;;;;;4.88;1.58;;;;;;;;;;5008112;28;20053;-86
2021/10/03 10:38:17;;;;;;;3.40;1.70;;;;;;;;;;5019289;28;20041;-86
2021/10/03 10:40:45;;;;;;;3.00;1.70;;;;;;;;;;5038242;28;20512;-87
2021/10/03 10:43:45;;;;;;;3.45;1.52;;;;;;;;;;5036252;28;20056;-91
2021/10/03 10:46:47;;;;;;;8.65;1.92;;;;;;;;;;5016101;28;20045;-89
2021/10/03 10:49:35;;;;;;;30.88;3.15;;;;;;;;;;5009572;28;20075;-88
2021/10/03 10:52:37;;;;;;;4.30;2.38;;;;;;;;;;5020628;28;20056;-84
2021/10/03 10:55:32;;;;;;;4.07;1.58;;;;;;;;;;5045532;28;20040;-85
2021/10/03 10:58:21;;;;;;;3.33;1.93;;;;;;;;;;5045565;28;20072;-85
2021/10/03 11:01:07;;;;;;;4.20;1.77;;;;;;;;;;5026586;28;20051;-84
2021/10/03 11:04:05;;;;;;;3.67;1.65;;;;;;;;;;5041235;28;20410;-85
2021/10/03 11:06:59;;;;;;;4.60;1.98;;;;;;;;;;5039340;28;20558;-85
2021/10/03 11:09:27;;;;;;;2.33;1.30;;;;;;;;;;5018583;28;20045;-84
2021/10/03 11:12:02;;;;;;;3.05;1.70;;;;;;;;;;5044143;28;20132;-85
2021/10/03 11:14:30;;;;;;;;;;;;;;;;;;5024824;28;20099;-84
2021/10/03 11:17:01;;;;;;;3.10;1.83;;;;;;;;;;5045736;28;19936;-86
2021/10/03 11:19:41;;;;;;;3.97;1.60;;;;;;;;;;5010339;28;20052;-85
2021/10/03 11:22:09;;;;;;;6.38;2.03;;;;;;;;;;5020989;28;20067;-85
2021/10/03 11:24:38;;;;;;;3.45;1.98;;;;;;;;;;5040966;28;20117;-85
2021/10/03 11:27:07;;;;;;;2.80;1.83;;;;;;;;;;5026287;28;20041;-85
2021/10/03 11:29:38;;;;;;;3.00;1.80;;;;;;;;;;5040545;28;20103;-84
2021/10/03 11:32:06;;;;;;;3.53;1.50;;;;;;;;;;5007195;28;20045;-83
2021/10/03 11:34:36;;;;;;;3.33;1.63;;;;;;;;;;5024073;28;20494;-85
2021/10/03 11:37:05;;;;;;;2.30;1.52;;;;;;;;;;5039395;28;20052;-84
2021/10/03 11:39:42;;;;;;;1.85;1.27;;;;;;;;;;5009059;28;20073;-85
2021/10/03 11:42:11;;;;;;;3.20;1.70;;;;;;;;;;5037573;28;20048;-84
2021/10/03 11:44:41;;;;;;;4.25;1.77;;;;;;;;;;5042098;28;20077;-84
2021/10/03 11:47:09;;;;;;;2.55;1.60;;;;;;;;;;5044906;28;20045;-84
2021/10/03 11:49:39;;;;;;;4.10;1.95;;;;;;;;;;5025333;28;20046;-85
2021/10/03 11:52:07;;;;;;;2.90;1.27;;;;;;;;;;5045644;28;20041;-85
2021/10/03 11:54:36;;;;;;;3.20;1.50;;;;;;;;;;5026477;28;20482;-85
2021/10/03 11:57:28;;;;;;;2.13;1.23;;;;;;;;;;5026196;28;20653;-84
2021/10/03 12:00:06;;;;;;;2.33;1.50;;;;;;;;;;5042563;28;20041;-84
2021/10/03 12:02:36;;;;;;;3.03;1.65;;;;;;;;;;5042331;28;20041;-85
2021/10/03 12:05:04;;;;;;;3.50;1.85;;;;;;;;;;5042361;28;20037;-85
2021/10/03 12:07:34;;;;;;;2.33;1.52;;;;;;;;;;5040095;28;20486;-84
2021/10/03 12:10:02;;;;;;;3.67;2.15;;;;;;;;;;5026891;28;20053;-84
2021/10/03 12:12:55;;;;;;;3.83;1.45;;;;;;;;;;5038354;28;20053;-85
2021/10/03 12:15:38;;;;;;;2.03;1.30;;;;;;;;;;5039509;28;20038;-86
2021/10/03 12:18:06;;;;;;;2.95;1.98;;;;;;;;;;5028842;28;20124;-84
2021/10/03 12:20:52;;;;;;;5.20;1.70;;;;;;;;;;5009396;28;20056;-86
2021/10/03 12:23:20;;;;;;;2.30;1.58;;;;;;;;;;5042468;28;20041;-85
2021/10/03 12:25:50;;;;;;;2.75;1.50;;;;;;;;;;5045177;28;20103;-85
2021/10/03 12:28:18;;;;;;;2.38;1.30;;;;;;;;;;5031028;28;20081;-86
2021/10/03 12:30:48;;;;;;;4.45;1.63;;;;;;;;;;5025131;28;20053;-85
2021/10/03 12:33:16;;;;;;;3.08;1.75;;;;;;;;;;5040657;28;20053;-85
2021/10/03 12:35:59;;;;;;;3.80;1.50;;;;;;;;;;5038504;28;20711;-85
2021/10/03 12:38:26;;;;;;;1.85;1.50;;;;;;;;;;5010694;28;20057;-86
2021/10/03 12:40:53;;;;;;;3.03;1.55;;;;;;;;;;5017402;28;20046;-85
2021/10/03 12:43:20;;;;;;;2.15;1.23;;;;;;;;;;5020884;28;20048;-86
2021/10/03 12:45:48;;;;;;;2.55;1.60;;;;;;;;;;5003517;28;20064;-86
2021/10/03 12:48:15;;;;;;;2.55;1.55;;;;;;;;;;5034962;28;20049;-88
2021/10/03 12:50:42;;;;;;;2.97;1.75;;;;;;;;;;5002912;28;20053;-86
2021/10/03 12:53:09;;;;;;;4.07;1.50;;;;;;;;;;5035549;28;20077;-87
2021/10/03 12:55:36;;;;;;;2.30;1.40;;;;;;;;;;5018652;28;20505;-86
2021/10/03 12:58:03;;;;;;;2.33;1.50;;;;;;;;;;5022527;28;20097;-87
2021/10/03 13:00:29;;;;;;;2.33;1.40;;;;;;;;;;5012656;28;20037;-87
2021/10/03 13:02:58;;;;;;;2.63;1.42;;;;;;;;;;5040178;28;20052;-85
2021/10/03 13:05:24;;;;;;;1.98;1.40;;;;;;;;;;5037980;28;20051;-85
2021/10/03 13:07:52;;;;;;;2.35;1.35;;;;;;;;;;5007036;28;20073;-85
2021/10/03 13:10:19;;;;;;;3.17;1.58;;;;;;;;;;5042508;28;20042;-84
2021/10/03 13:12:46;;;;;;;2.30;1.30;;;;;;;;;;5038000;28;20054;-85
2021/10/03 13:15:13;;;;;;;2.53;1.30;;;;;;;;;;5023395;28;20053;-85
2021/10/03 13:17:40;;;;;;;4.47;1.30;;;;;;;;;;5005295;28;20049;-86
2021/10/03 13:20:11;;;;;;;2.92;1.25;;;;;;;;;;5038868;28;20049;-85
2021/10/03 13:22:38;;;;;;;2.22;1.42;;;;;;;;;;5041523;28;20085;-87
2021/10/03 13:25:07;;;;;;;2.67;1.40;;;;;;;;;;5048522;28;20049;-86
2021/10/03 13:27:34;;;;;;;2.22;1.13;;;;;;;;;;5025742;28;20468;-85
2021/10/03 13:30:01;;;;;;;3.33;1.27;;;;;;;;;;5023279;28;20046;-85
2021/10/03 13:32:28;;;;;;;1.77;1.10;;;;;;;;;;5036541;28;20045;-85
2021/10/03 13:34:55;;;;;;;4.18;1.40;;;;;;;;;;5006316;28;20107;-85
2021/10/03 13:37:24;;;;;;;4.60;1.30;;;;;;;;;;5045441;28;20649;-84
2021/10/03 13:39:50;;;;;;;1.92;1.20;;;;;;;;;;5009789;28;20050;-84
2021/10/03 13:42:17;;;;;;;2.78;1.60;;;;;;;;;;5009524;28;20045;-85
2021/10/03 13:44:44;;;;;;;3.13;1.88;;;;;;;;;;5037935;28;20520;-85
2021/10/03 13:47:11;;;;;;;2.78;1.30;;;;;;;;;;5021101;28;20040;-84
2021/10/03 13:49:38;;;;;;;2.17;1.45;;;;;;;;;;5008069;28;20510;-84
2021/10/03 13:52:05;;;;;;;2.58;1.27;;;;;;;;;;5011170;28;20409;-84
2021/10/03 13:54:33;;;;;;;2.00;1.33;;;;;;;;;;5040918;28;20192;-85
2021/10/03 13:57:00;;;;;;;4.88;1.70;;;;;;;;;;5044384;28;20050;-84
2021/10/03 13:59:27;;;;;;;3.08;1.50;;;;;;;;;;5023036;28;20053;-84
2021/10/03 14:01:54;;;;;;;4.75;4.25;;;;;;;;;;5025862;28;20045;-84
2021/10/03 14:04:21;;;;;;;7.60;5.82;;;;;;;;;;5025219;28;20038;-83
2021/10/03 14:06:48;;;;;;;10.38;6.82;;;;;;;;;;5024335;28;20041;-84
2021/10/03 14:09:15;;;;;;;7.90;5.93;;;;;;;;;;5025756;28;20044;-84
2021/10/03 14:11:44;;;;;;;4.70;3.67;;;;;;;;;;5024267;28;20159;-84
2021/10/03 14:14:11;;;;;;;5.63;3.13;;;;;;;;;;5046612;28;20048;-84
2021/10/03 14:16:38;;;;;;;4.78;2.72;;;;;;;;;;5023784;28;20139;-85
2021/10/03 14:19:05;;;;;;;4.68;3.00;;;;;;;;;;5028971;28;20044;-84
2021/10/03 14:21:32;;;;;;;4.30;2.30;;;;;;;;;;5041890;28;20045;-84
2021/10/03 14:23:59;;;;;;;4.20;2.40;;;;;;;;;;5043013;28;20052;-83
2021/10/03 14:26:25;;;;;;;2.80;1.77;;;;;;;;;;5005813;28;20045;-85
2021/10/03 14:28:54;;;;;;;5.35;1.88;;;;;;;;;;5003950;28;20080;-84
2021/10/03 14:31:21;;;;;;;11.82;3.13;;;;;;;;;;5036603;28;20045;-84
2021/10/03 14:33:47;;;;;;;17.27;3.38;;;;;;;;;;5023163;28;20061;-84
2021/10/03 14:36:14;;;;;;;5.40;2.65;;;;;;;;;;5036414;28;20494;-84
2021/10/03 14:38:41;;;;;;;7.80;3.03;;;;;;;;;;5039079;28;20065;-84
2021/10/03 14:41:08;;;;;;;9.23;2.45;;;;;;;;;;5038881;28;20561;-84
2021/10/03 14:43:35;;;;;;;8.73;2.53;;;;;;;;;;5021214;28;20041;-84
2021/10/03 14:46:03;;;;;;;3.85;2.03;;;;;;;;;;5025201;28;20790;-84
2021/10/03 14:48:31;;;;;;;6.30;1.83;;;;;;;;;;5021821;28;20048;-84
2021/10/03 14:50:58;;;;;;;4.28;2.03;;;;;;;;;;5017512;28;20132;-84
2021/10/03 14:53:26;;;;;;;5.47;2.50;;;;;;;;;;5006934;28;20073;-83
2021/10/03 14:55:54;;;;;;;3.88;2.15;;;;;;;;;;5024036;28;20050;-84